sensor_id;sensor_type;location;lat;lon;timestamp;P1;durP1;ratioP1;P2;durP2;ratioP2
68700;SDS011;55682;51.114;5.882;2023-06-10T00:01:54;9.73;;;9.73;;
68700;SDS011;55682;51.114;5.882;2023-06-10T00:04:25;9.63;;;9.63;;
68700;SDS011;55682;51.114;5.882;2023-06-10T00:06:51;9.96;;;9.96;;
68700;SDS011;55682;51.114;5.882;2023-06-10T00:09:16;9.86;;;9.86;;
68700;SDS011;55682;51.114;5.882;2023-06-10T00:11:43;11.12;;;11.12;;
68700;SDS011;55682;51.114;5.882;2023-06-10T00:14:09;10.69;;;10.69;;
68700;SDS011;55682;51.114;5.882;2023-06-10T00:16:35;10.95;;;10.95;;
68700;SDS011;55682;51.114;5.882;2023-06-10T00:19:02;10.93;;;10.93;;
68700;SDS011;55682;51.114;5.882;2023-06-10T00:21:29;10.54;;;10.54;;
68700;SDS011;55682;51.114;5.882;2023-06-10T00:24:11;10.95;;;10.95;;
68700;SDS011;55682;51.114;5.882;2023-06-10T00:26:37;10.56;;;10.56;;
68700;SDS011;55682;51.114;5.882;2023-06-10T00:29:04;10.68;;;10.68;;
68700;SDS011;55682;51.114;5.882;2023-06-10T00:31:31;10.46;;;10.46;;
68700;SDS011;55682;51.114;5.882;2023-06-10T00:33:57;10.88;;;10.88;;
68700;SDS011;55682;51.114;5.882;2023-06-10T00:36:24;10.78;;;10.78;;
68700;SDS011;55682;51.114;5.882;2023-06-10T00:38:49;10.41;;;10.41;;
68700;SDS011;55682;51.114;5.882;2023-06-10T00:41:15;10.38;;;10.38;;
68700;SDS011;55682;51.114;5.882;2023-06-10T00:43:40;11.12;;;11.12;;
68700;SDS011;55682;51.114;5.882;2023-06-10T00:46:07;11.02;;;11.02;;
68700;SDS011;55682;51.114;5.882;2023-06-10T00:48:33;11.16;;;11.16;;
68700;SDS011;55682;51.114;5.882;2023-06-10T00:50:59;11.37;;;11.37;;
68700;SDS011;55682;51.114;5.882;2023-06-10T00:53:25;11.37;;;11.37;;
68700;SDS011;55682;51.114;5.882;2023-06-10T00:55:52;11.55;;;11.55;;
68700;SDS011;55682;51.114;5.882;2023-06-10T00:58:18;11.71;;;11.71;;
68700;SDS011;55682;51.114;5.882;2023-06-10T01:00:44;11.86;;;11.86;;
68700;SDS011;55682;51.114;5.882;2023-06-10T01:03:10;11.95;;;11.95;;
68700;SDS011;55682;51.114;5.882;2023-06-10T01:05:37;11.68;;;11.68;;
68700;SDS011;55682;51.114;5.882;2023-06-10T01:08:09;11.78;;;11.78;;
68700;SDS011;55682;51.114;5.882;2023-06-10T01:10:53;12.22;;;12.22;;
68700;SDS011;55682;51.114;5.882;2023-06-10T01:13:29;11.92;;;11.92;;
68700;SDS011;55682;51.114;5.882;2023-06-10T01:15:58;11.94;;;11.94;;
68700;SDS011;55682;51.114;5.882;2023-06-10T01:18:29;12.22;;;12.22;;
68700;SDS011;55682;51.114;5.882;2023-06-10T01:20:57;11.46;;;11.46;;
68700;SDS011;55682;51.114;5.882;2023-06-10T01:23:22;12.31;;;12.31;;
68700;SDS011;55682;51.114;5.882;2023-06-10T01:25:53;12.07;;;12.07;;
68700;SDS011;55682;51.114;5.882;2023-06-10T01:28:36;12.13;;;12.13;;
68700;SDS011;55682;51.114;5.882;2023-06-10T01:34:03;12.26;;;12.26;;
68700;SDS011;55682;51.114;5.882;2023-06-10T01:36:35;11.95;;;11.95;;
68700;SDS011;55682;51.114;5.882;2023-06-10T01:39:03;12.01;;;12.01;;
68700;SDS011;55682;51.114;5.882;2023-06-10T01:41:31;11.89;;;11.89;;
68700;SDS011;55682;51.114;5.882;2023-06-10T01:43:58;11.68;;;11.68;;
68700;SDS011;55682;51.114;5.882;2023-06-10T01:46:24;12.34;;;12.34;;
68700;SDS011;55682;51.114;5.882;2023-06-10T01:48:49;12.37;;;12.37;;
68700;SDS011;55682;51.114;5.882;2023-06-10T01:51:15;12.39;;;12.39;;
68700;SDS011;55682;51.114;5.882;2023-06-10T01:53:41;12.71;;;12.71;;
68700;SDS011;55682;51.114;5.882;2023-06-10T01:56:06;12.60;;;12.60;;
68700;SDS011;55682;51.114;5.882;2023-06-10T01:58:32;12.56;;;12.56;;
68700;SDS011;55682;51.114;5.882;2023-06-10T02:00:57;12.85;;;12.85;;
68700;SDS011;55682;51.114;5.882;2023-06-10T02:03:23;12.95;;;12.95;;
68700;SDS011;55682;51.114;5.882;2023-06-10T02:05:49;12.61;;;12.61;;
68700;SDS011;55682;51.114;5.882;2023-06-10T02:08:15;12.32;;;12.32;;
68700;SDS011;55682;51.114;5.882;2023-06-10T02:10:40;12.94;;;12.94;;
68700;SDS011;55682;51.114;5.882;2023-06-10T02:13:06;12.81;;;12.81;;
68700;SDS011;55682;51.114;5.882;2023-06-10T02:15:32;12.59;;;12.59;;
68700;SDS011;55682;51.114;5.882;2023-06-10T02:17:59;12.91;;;12.91;;
68700;SDS011;55682;51.114;5.882;2023-06-10T02:20:24;12.20;;;12.20;;
68700;SDS011;55682;51.114;5.882;2023-06-10T02:22:50;12.50;;;12.50;;
68700;SDS011;55682;51.114;5.882;2023-06-10T02:25:16;12.79;;;12.79;;
68700;SDS011;55682;51.114;5.882;2023-06-10T02:27:41;13.18;;;13.18;;
68700;SDS011;55682;51.114;5.882;2023-06-10T02:30:07;12.73;;;12.73;;
68700;SDS011;55682;51.114;5.882;2023-06-10T02:32:35;12.15;;;12.15;;
68700;SDS011;55682;51.114;5.882;2023-06-10T02:35:02;12.06;;;12.06;;
68700;SDS011;55682;51.114;5.882;2023-06-10T02:37:28;12.71;;;12.71;;
68700;SDS011;55682;51.114;5.882;2023-06-10T02:39:55;12.66;;;12.66;;
68700;SDS011;55682;51.114;5.882;2023-06-10T02:42:21;12.80;;;12.80;;
68700;SDS011;55682;51.114;5.882;2023-06-10T02:44:47;12.48;;;12.48;;
68700;SDS011;55682;51.114;5.882;2023-06-10T02:47:20;12.31;;;12.31;;
68700;SDS011;55682;51.114;5.882;2023-06-10T02:49:45;12.65;;;12.65;;
68700;SDS011;55682;51.114;5.882;2023-06-10T02:52:11;12.32;;;12.32;;
68700;SDS011;55682;51.114;5.882;2023-06-10T02:54:37;12.20;;;12.20;;
68700;SDS011;55682;51.114;5.882;2023-06-10T02:57:05;12.76;;;12.76;;
68700;SDS011;55682;51.114;5.882;2023-06-10T02:59:31;12.40;;;12.40;;
68700;SDS011;55682;51.114;5.882;2023-06-10T03:01:57;13.30;;;13.30;;
68700;SDS011;55682;51.114;5.882;2023-06-10T03:04:26;13.18;;;13.18;;
68700;SDS011;55682;51.114;5.882;2023-06-10T03:07:00;13.41;;;13.41;;
68700;SDS011;55682;51.114;5.882;2023-06-10T03:09:31;13.01;;;13.01;;
68700;SDS011;55682;51.114;5.882;2023-06-10T03:11:59;13.63;;;13.63;;
68700;SDS011;55682;51.114;5.882;2023-06-10T03:14:28;12.93;;;12.93;;
68700;SDS011;55682;51.114;5.882;2023-06-10T03:16:53;12.82;;;12.82;;
68700;SDS011;55682;51.114;5.882;2023-06-10T03:19:21;12.88;;;12.88;;
68700;SDS011;55682;51.114;5.882;2023-06-10T03:22:06;12.12;;;12.12;;
68700;SDS011;55682;51.114;5.882;2023-06-10T03:24:35;12.67;;;12.67;;
68700;SDS011;55682;51.114;5.882;2023-06-10T03:27:03;13.12;;;13.12;;
68700;SDS011;55682;51.114;5.882;2023-06-10T03:29:30;12.85;;;12.85;;
68700;SDS011;55682;51.114;5.882;2023-06-10T03:31:56;13.07;;;13.07;;
68700;SDS011;55682;51.114;5.882;2023-06-10T03:34:23;13.98;;;13.98;;
68700;SDS011;55682;51.114;5.882;2023-06-10T03:36:49;13.36;;;13.36;;
68700;SDS011;55682;51.114;5.882;2023-06-10T03:39:15;13.58;;;13.58;;
68700;SDS011;55682;51.114;5.882;2023-06-10T03:41:41;13.33;;;13.33;;
68700;SDS011;55682;51.114;5.882;2023-06-10T03:44:07;12.59;;;12.59;;
68700;SDS011;55682;51.114;5.882;2023-06-10T03:46:32;13.12;;;13.12;;
68700;SDS011;55682;51.114;5.882;2023-06-10T03:48:58;13.56;;;13.56;;
68700;SDS011;55682;51.114;5.882;2023-06-10T03:51:29;13.23;;;13.23;;
68700;SDS011;55682;51.114;5.882;2023-06-10T03:53:55;13.06;;;13.06;;
68700;SDS011;55682;51.114;5.882;2023-06-10T03:56:21;12.26;;;12.26;;
68700;SDS011;55682;51.114;5.882;2023-06-10T03:58:46;12.55;;;12.55;;
68700;SDS011;55682;51.114;5.882;2023-06-10T04:01:13;12.25;;;12.25;;
68700;SDS011;55682;51.114;5.882;2023-06-10T04:03:38;12.09;;;12.09;;
68700;SDS011;55682;51.114;5.882;2023-06-10T04:06:06;12.09;;;12.09;;
68700;SDS011;55682;51.114;5.882;2023-06-10T04:08:32;11.42;;;11.42;;
68700;SDS011;55682;51.114;5.882;2023-06-10T04:10:59;11.43;;;11.43;;
68700;SDS011;55682;51.114;5.882;2023-06-10T04:13:26;11.75;;;11.75;;
68700;SDS011;55682;51.114;5.882;2023-06-10T04:15:55;11.86;;;11.86;;
68700;SDS011;55682;51.114;5.882;2023-06-10T04:18:21;11.60;;;11.60;;
68700;SDS011;55682;51.114;5.882;2023-06-10T04:20:47;11.96;;;11.96;;
68700;SDS011;55682;51.114;5.882;2023-06-10T04:23:13;11.36;;;11.36;;
68700;SDS011;55682;51.114;5.882;2023-06-10T04:25:41;11.19;;;11.19;;
68700;SDS011;55682;51.114;5.882;2023-06-10T04:28:07;11.52;;;11.52;;
68700;SDS011;55682;51.114;5.882;2023-06-10T04:30:32;11.42;;;11.42;;
68700;SDS011;55682;51.114;5.882;2023-06-10T04:32:59;12.07;;;12.07;;
68700;SDS011;55682;51.114;5.882;2023-06-10T04:35:25;11.80;;;11.80;;
68700;SDS011;55682;51.114;5.882;2023-06-10T04:37:53;11.57;;;11.57;;
68700;SDS011;55682;51.114;5.882;2023-06-10T04:40:20;10.54;;;10.54;;
68700;SDS011;55682;51.114;5.882;2023-06-10T04:42:46;11.38;;;11.38;;
68700;SDS011;55682;51.114;5.882;2023-06-10T04:45:12;10.51;;;10.51;;
68700;SDS011;55682;51.114;5.882;2023-06-10T04:47:38;11.03;;;11.03;;
68700;SDS011;55682;51.114;5.882;2023-06-10T04:50:06;11.13;;;11.13;;
68700;SDS011;55682;51.114;5.882;2023-06-10T04:52:32;11.28;;;11.28;;
68700;SDS011;55682;51.114;5.882;2023-06-10T04:54:58;10.97;;;10.97;;
68700;SDS011;55682;51.114;5.882;2023-06-10T04:57:24;11.07;;;11.07;;
68700;SDS011;55682;51.114;5.882;2023-06-10T04:59:51;10.37;;;10.37;;
68700;SDS011;55682;51.114;5.882;2023-06-10T05:02:17;10.91;;;10.91;;
68700;SDS011;55682;51.114;5.882;2023-06-10T05:04:43;10.56;;;10.56;;
68700;SDS011;55682;51.114;5.882;2023-06-10T05:07:08;11.12;;;11.12;;
68700;SDS011;55682;51.114;5.882;2023-06-10T05:09:34;10.63;;;10.63;;
68700;SDS011;55682;51.114;5.882;2023-06-10T05:12:00;10.70;;;10.70;;
68700;SDS011;55682;51.114;5.882;2023-06-10T05:14:25;11.16;;;11.16;;
68700;SDS011;55682;51.114;5.882;2023-06-10T05:16:51;9.82;;;9.82;;
68700;SDS011;55682;51.114;5.882;2023-06-10T05:19:16;9.69;;;9.69;;
68700;SDS011;55682;51.114;5.882;2023-06-10T05:21:43;10.10;;;10.10;;
68700;SDS011;55682;51.114;5.882;2023-06-10T05:24:10;10.42;;;10.42;;
68700;SDS011;55682;51.114;5.882;2023-06-10T05:26:35;9.94;;;9.94;;
68700;SDS011;55682;51.114;5.882;2023-06-10T05:29:04;10.42;;;10.42;;
68700;SDS011;55682;51.114;5.882;2023-06-10T05:31:30;10.34;;;10.34;;
68700;SDS011;55682;51.114;5.882;2023-06-10T05:33:56;9.85;;;9.85;;
68700;SDS011;55682;51.114;5.882;2023-06-10T05:36:22;10.03;;;10.03;;
68700;SDS011;55682;51.114;5.882;2023-06-10T05:38:50;9.34;;;9.34;;
68700;SDS011;55682;51.114;5.882;2023-06-10T05:41:16;9.99;;;9.99;;
68700;SDS011;55682;51.114;5.882;2023-06-10T05:43:41;10.08;;;10.08;;
68700;SDS011;55682;51.114;5.882;2023-06-10T05:46:07;9.62;;;9.62;;
68700;SDS011;55682;51.114;5.882;2023-06-10T05:48:32;9.46;;;9.46;;
68700;SDS011;55682;51.114;5.882;2023-06-10T05:50:58;9.35;;;9.35;;
68700;SDS011;55682;51.114;5.882;2023-06-10T05:53:24;9.22;;;9.22;;
68700;SDS011;55682;51.114;5.882;2023-06-10T05:55:50;8.85;;;8.85;;
68700;SDS011;55682;51.114;5.882;2023-06-10T05:58:16;9.09;;;9.09;;
68700;SDS011;55682;51.114;5.882;2023-06-10T06:00:42;8.75;;;8.75;;
68700;SDS011;55682;51.114;5.882;2023-06-10T06:03:07;8.49;;;8.49;;
68700;SDS011;55682;51.114;5.882;2023-06-10T06:05:33;8.85;;;8.85;;
68700;SDS011;55682;51.114;5.882;2023-06-10T06:08:01;8.08;;;8.08;;
68700;SDS011;55682;51.114;5.882;2023-06-10T06:10:27;8.36;;;8.36;;
68700;SDS011;55682;51.114;5.882;2023-06-10T06:12:53;7.81;;;7.81;;
68700;SDS011;55682;51.114;5.882;2023-06-10T06:15:18;8.08;;;8.08;;
68700;SDS011;55682;51.114;5.882;2023-06-10T06:17:44;8.22;;;8.22;;
68700;SDS011;55682;51.114;5.882;2023-06-10T06:20:09;7.58;;;7.58;;
68700;SDS011;55682;51.114;5.882;2023-06-10T06:22:35;7.29;;;7.29;;
68700;SDS011;55682;51.114;5.882;2023-06-10T06:25:01;7.39;;;7.39;;
68700;SDS011;55682;51.114;5.882;2023-06-10T06:27:27;8.60;;;8.60;;
68700;SDS011;55682;51.114;5.882;2023-06-10T06:29:53;7.11;;;7.11;;
68700;SDS011;55682;51.114;5.882;2023-06-10T06:32:18;7.88;;;7.88;;
68700;SDS011;55682;51.114;5.882;2023-06-10T06:34:44;8.57;;;8.57;;
68700;SDS011;55682;51.114;5.882;2023-06-10T06:37:10;7.98;;;7.98;;
68700;SDS011;55682;51.114;5.882;2023-06-10T06:39:39;6.93;;;6.93;;
68700;SDS011;55682;51.114;5.882;2023-06-10T06:42:05;6.65;;;6.65;;
68700;SDS011;55682;51.114;5.882;2023-06-10T06:44:49;7.55;;;7.55;;
68700;SDS011;55682;51.114;5.882;2023-06-10T06:47:15;7.11;;;7.11;;
68700;SDS011;55682;51.114;5.882;2023-06-10T06:49:45;7.54;;;7.54;;
68700;SDS011;55682;51.114;5.882;2023-06-10T06:52:11;6.31;;;6.31;;
68700;SDS011;55682;51.114;5.882;2023-06-10T06:54:37;7.48;;;7.48;;
68700;SDS011;55682;51.114;5.882;2023-06-10T06:57:02;6.45;;;6.45;;
68700;SDS011;55682;51.114;5.882;2023-06-10T06:59:28;6.35;;;6.35;;
68700;SDS011;55682;51.114;5.882;2023-06-10T07:01:54;6.55;;;6.55;;
68700;SDS011;55682;51.114;5.882;2023-06-10T07:04:20;6.95;;;6.95;;
68700;SDS011;55682;51.114;5.882;2023-06-10T07:06:48;5.16;;;5.16;;
68700;SDS011;55682;51.114;5.882;2023-06-10T07:09:14;5.95;;;5.95;;
68700;SDS011;55682;51.114;5.882;2023-06-10T07:11:40;6.09;;;6.09;;
68700;SDS011;55682;51.114;5.882;2023-06-10T07:14:06;5.21;;;5.21;;
68700;SDS011;55682;51.114;5.882;2023-06-10T07:16:32;5.71;;;5.71;;
68700;SDS011;55682;51.114;5.882;2023-06-10T07:18:58;5.23;;;5.23;;
68700;SDS011;55682;51.114;5.882;2023-06-10T07:21:24;5.42;;;5.42;;
68700;SDS011;55682;51.114;5.882;2023-06-10T07:23:49;5.98;;;5.98;;
68700;SDS011;55682;51.114;5.882;2023-06-10T07:26:18;5.76;;;5.76;;
68700;SDS011;55682;51.114;5.882;2023-06-10T07:28:44;5.11;;;5.11;;
68700;SDS011;55682;51.114;5.882;2023-06-10T07:31:10;5.40;;;5.40;;
68700;SDS011;55682;51.114;5.882;2023-06-10T07:33:37;6.19;;;6.19;;
68700;SDS011;55682;51.114;5.882;2023-06-10T07:36:04;5.94;;;5.94;;
68700;SDS011;55682;51.114;5.882;2023-06-10T07:38:31;6.56;;;6.56;;
68700;SDS011;55682;51.114;5.882;2023-06-10T07:40:56;5.53;;;5.53;;
68700;SDS011;55682;51.114;5.882;2023-06-10T07:43:22;5.63;;;5.63;;
68700;SDS011;55682;51.114;5.882;2023-06-10T07:45:49;6.00;;;6.00;;
68700;SDS011;55682;51.114;5.882;2023-06-10T07:48:14;6.01;;;6.01;;
68700;SDS011;55682;51.114;5.882;2023-06-10T07:50:40;5.40;;;5.40;;
68700;SDS011;55682;51.114;5.882;2023-06-10T07:53:06;6.07;;;6.07;;
68700;SDS011;55682;51.114;5.882;2023-06-10T07:55:32;6.49;;;6.49;;
68700;SDS011;55682;51.114;5.882;2023-06-10T07:57:57;6.15;;;6.15;;
68700;SDS011;55682;51.114;5.882;2023-06-10T08:00:23;5.73;;;5.73;;
68700;SDS011;55682;51.114;5.882;2023-06-10T08:02:49;5.48;;;5.48;;
68700;SDS011;55682;51.114;5.882;2023-06-10T08:05:15;6.45;;;6.45;;
68700;SDS011;55682;51.114;5.882;2023-06-10T08:07:42;6.44;;;6.44;;
68700;SDS011;55682;51.114;5.882;2023-06-10T08:10:08;6.07;;;6.07;;
68700;SDS011;55682;51.114;5.882;2023-06-10T08:12:34;5.57;;;5.57;;
68700;SDS011;55682;51.114;5.882;2023-06-10T08:15:01;5.76;;;5.76;;
68700;SDS011;55682;51.114;5.882;2023-06-10T08:17:29;6.32;;;6.32;;
68700;SDS011;55682;51.114;5.882;2023-06-10T08:19:55;4.77;;;4.77;;
68700;SDS011;55682;51.114;5.882;2023-06-10T08:22:21;5.87;;;5.87;;
68700;SDS011;55682;51.114;5.882;2023-06-10T08:24:47;5.84;;;5.84;;
68700;SDS011;55682;51.114;5.882;2023-06-10T08:27:12;6.33;;;6.33;;
68700;SDS011;55682;51.114;5.882;2023-06-10T08:29:38;6.32;;;6.32;;
68700;SDS011;55682;51.114;5.882;2023-06-10T08:32:04;5.99;;;5.99;;
68700;SDS011;55682;51.114;5.882;2023-06-10T08:34:34;5.50;;;5.50;;
68700;SDS011;55682;51.114;5.882;2023-06-10T08:37:01;4.68;;;4.68;;
68700;SDS011;55682;51.114;5.882;2023-06-10T08:39:27;4.35;;;4.35;;
68700;SDS011;55682;51.114;5.882;2023-06-10T08:42:02;4.69;;;4.69;;
68700;SDS011;55682;51.114;5.882;2023-06-10T08:44:50;6.67;;;6.67;;
68700;SDS011;55682;51.114;5.882;2023-06-10T08:47:20;5.05;;;5.05;;
68700;SDS011;55682;51.114;5.882;2023-06-10T08:49:48;5.58;;;5.58;;
68700;SDS011;55682;51.114;5.882;2023-06-10T08:52:14;4.95;;;4.95;;
68700;SDS011;55682;51.114;5.882;2023-06-10T08:54:48;5.10;;;5.10;;
68700;SDS011;55682;51.114;5.882;2023-06-10T08:57:19;5.12;;;5.12;;
68700;SDS011;55682;51.114;5.882;2023-06-10T08:59:47;4.63;;;4.63;;
68700;SDS011;55682;51.114;5.882;2023-06-10T09:02:13;4.92;;;4.92;;
68700;SDS011;55682;51.114;5.882;2023-06-10T09:04:43;5.82;;;5.82;;
68700;SDS011;55682;51.114;5.882;2023-06-10T09:07:11;6.34;;;6.34;;
68700;SDS011;55682;51.114;5.882;2023-06-10T09:09:40;6.34;;;6.34;;
68700;SDS011;55682;51.114;5.882;2023-06-10T09:12:08;5.64;;;5.64;;
68700;SDS011;55682;51.114;5.882;2023-06-10T09:14:33;5.97;;;5.97;;
68700;SDS011;55682;51.114;5.882;2023-06-10T09:16:59;5.30;;;5.30;;
68700;SDS011;55682;51.114;5.882;2023-06-10T09:19:25;5.40;;;5.40;;
68700;SDS011;55682;51.114;5.882;2023-06-10T09:21:53;5.72;;;5.72;;
68700;SDS011;55682;51.114;5.882;2023-06-10T09:24:19;6.00;;;6.00;;
68700;SDS011;55682;51.114;5.882;2023-06-10T09:26:47;5.62;;;5.62;;
68700;SDS011;55682;51.114;5.882;2023-06-10T09:29:13;5.33;;;5.33;;
68700;SDS011;55682;51.114;5.882;2023-06-10T09:31:39;5.92;;;5.92;;
68700;SDS011;55682;51.114;5.882;2023-06-10T09:34:09;6.11;;;6.11;;
68700;SDS011;55682;51.114;5.882;2023-06-10T09:36:38;6.44;;;6.44;;
68700;SDS011;55682;51.114;5.882;2023-06-10T09:39:05;6.31;;;6.31;;
68700;SDS011;55682;51.114;5.882;2023-06-10T09:41:41;6.17;;;6.17;;
68700;SDS011;55682;51.114;5.882;2023-06-10T09:46:40;6.35;;;6.35;;
68700;SDS011;55682;51.114;5.882;2023-06-10T09:49:06;7.92;;;7.92;;
68700;SDS011;55682;51.114;5.882;2023-06-10T09:51:32;6.90;;;6.90;;
68700;SDS011;55682;51.114;5.882;2023-06-10T09:53:57;6.35;;;6.35;;
68700;SDS011;55682;51.114;5.882;2023-06-10T09:56:34;6.80;;;6.80;;
68700;SDS011;55682;51.114;5.882;2023-06-10T09:59:03;7.64;;;7.64;;
68700;SDS011;55682;51.114;5.882;2023-06-10T10:01:32;7.25;;;7.25;;
68700;SDS011;55682;51.114;5.882;2023-06-10T10:03:58;6.01;;;6.01;;
68700;SDS011;55682;51.114;5.882;2023-06-10T10:06:24;6.61;;;6.61;;
68700;SDS011;55682;51.114;5.882;2023-06-10T10:08:51;6.72;;;6.72;;
68700;SDS011;55682;51.114;5.882;2023-06-10T10:11:17;5.88;;;5.88;;
68700;SDS011;55682;51.114;5.882;2023-06-10T10:13:47;7.56;;;7.56;;
68700;SDS011;55682;51.114;5.882;2023-06-10T10:16:16;6.69;;;6.69;;
68700;SDS011;55682;51.114;5.882;2023-06-10T10:18:52;6.50;;;6.50;;
68700;SDS011;55682;51.114;5.882;2023-06-10T10:21:24;7.51;;;7.51;;
68700;SDS011;55682;51.114;5.882;2023-06-10T10:26:17;7.55;;;7.55;;
68700;SDS011;55682;51.114;5.882;2023-06-10T10:28:51;7.86;;;7.86;;
68700;SDS011;55682;51.114;5.882;2023-06-10T10:31:35;7.59;;;7.59;;
68700;SDS011;55682;51.114;5.882;2023-06-10T10:34:04;6.89;;;6.89;;
68700;SDS011;55682;51.114;5.882;2023-06-10T10:36:34;7.49;;;7.49;;
68700;SDS011;55682;51.114;5.882;2023-06-10T10:39:01;7.38;;;7.38;;
68700;SDS011;55682;51.114;5.882;2023-06-10T10:41:29;7.53;;;7.53;;
68700;SDS011;55682;51.114;5.882;2023-06-10T10:43:57;8.17;;;8.17;;
68700;SDS011;55682;51.114;5.882;2023-06-10T10:46:25;8.47;;;8.47;;
68700;SDS011;55682;51.114;5.882;2023-06-10T10:48:54;7.88;;;7.88;;
68700;SDS011;55682;51.114;5.882;2023-06-10T10:51:20;7.54;;;7.54;;
68700;SDS011;55682;51.114;5.882;2023-06-10T10:57:09;6.73;;;6.73;;
68700;SDS011;55682;51.114;5.882;2023-06-10T10:59:46;7.55;;;7.55;;
68700;SDS011;55682;51.114;5.882;2023-06-10T11:05:05;5.78;;;5.78;;
68700;SDS011;55682;51.114;5.882;2023-06-10T11:07:32;6.49;;;6.49;;
68700;SDS011;55682;51.114;5.882;2023-06-10T11:10:06;7.23;;;7.23;;
68700;SDS011;55682;51.114;5.882;2023-06-10T11:15:14;5.59;;;5.59;;
68700;SDS011;55682;51.114;5.882;2023-06-10T11:31:28;5.63;;;5.63;;
68700;SDS011;55682;51.114;5.882;2023-06-10T11:36:28;6.68;;;6.68;;
68700;SDS011;55682;51.114;5.882;2023-06-10T11:41:28;5.82;;;5.82;;
68700;SDS011;55682;51.114;5.882;2023-06-10T11:43:55;7.12;;;7.12;;
68700;SDS011;55682;51.114;5.882;2023-06-10T11:46:22;7.04;;;7.04;;
68700;SDS011;55682;51.114;5.882;2023-06-10T11:48:52;5.47;;;5.47;;
68700;SDS011;55682;51.114;5.882;2023-06-10T11:51:19;6.21;;;6.21;;
68700;SDS011;55682;51.114;5.882;2023-06-10T11:53:45;5.97;;;5.97;;
68700;SDS011;55682;51.114;5.882;2023-06-10T11:56:11;6.31;;;6.31;;
68700;SDS011;55682;51.114;5.882;2023-06-10T11:58:36;6.65;;;6.65;;
68700;SDS011;55682;51.114;5.882;2023-06-10T12:01:03;6.58;;;6.58;;
68700;SDS011;55682;51.114;5.882;2023-06-10T12:03:35;7.50;;;7.50;;
68700;SDS011;55682;51.114;5.882;2023-06-10T12:06:06;5.88;;;5.88;;
68700;SDS011;55682;51.114;5.882;2023-06-10T12:08:32;6.40;;;6.40;;
68700;SDS011;55682;51.114;5.882;2023-06-10T12:11:06;5.49;;;5.49;;
68700;SDS011;55682;51.114;5.882;2023-06-10T12:13:32;6.40;;;6.40;;
68700;SDS011;55682;51.114;5.882;2023-06-10T12:16:08;5.06;;;5.06;;
68700;SDS011;55682;51.114;5.882;2023-06-10T12:18:34;6.65;;;6.65;;
68700;SDS011;55682;51.114;5.882;2023-06-10T12:21:00;7.20;;;7.20;;
68700;SDS011;55682;51.114;5.882;2023-06-10T12:23:25;7.22;;;7.22;;
68700;SDS011;55682;51.114;5.882;2023-06-10T12:25:52;7.12;;;7.12;;
68700;SDS011;55682;51.114;5.882;2023-06-10T12:28:23;7.62;;;7.62;;
68700;SDS011;55682;51.114;5.882;2023-06-10T12:30:50;7.12;;;7.12;;
68700;SDS011;55682;51.114;5.882;2023-06-10T12:33:18;6.99;;;6.99;;
68700;SDS011;55682;51.114;5.882;2023-06-10T12:35:49;5.59;;;5.59;;
68700;SDS011;55682;51.114;5.882;2023-06-10T12:38:26;5.86;;;5.86;;
68700;SDS011;55682;51.114;5.882;2023-06-10T12:41:01;5.29;;;5.29;;
68700;SDS011;55682;51.114;5.882;2023-06-10T12:43:30;5.95;;;5.95;;
68700;SDS011;55682;51.114;5.882;2023-06-10T12:46:07;5.57;;;5.57;;
68700;SDS011;55682;51.114;5.882;2023-06-10T12:48:37;7.36;;;7.36;;
68700;SDS011;55682;51.114;5.882;2023-06-10T12:51:16;7.48;;;7.48;;
68700;SDS011;55682;51.114;5.882;2023-06-10T12:53:42;6.98;;;6.98;;
68700;SDS011;55682;51.114;5.882;2023-06-10T12:56:08;6.56;;;6.56;;
68700;SDS011;55682;51.114;5.882;2023-06-10T12:58:34;7.38;;;7.38;;
68700;SDS011;55682;51.114;5.882;2023-06-10T13:01:00;7.22;;;7.22;;
68700;SDS011;55682;51.114;5.882;2023-06-10T13:03:25;6.58;;;6.58;;
68700;SDS011;55682;51.114;5.882;2023-06-10T13:05:51;6.80;;;6.80;;
68700;SDS011;55682;51.114;5.882;2023-06-10T13:08:17;5.64;;;5.64;;
68700;SDS011;55682;51.114;5.882;2023-06-10T13:10:42;5.67;;;5.67;;
68700;SDS011;55682;51.114;5.882;2023-06-10T13:13:08;6.62;;;6.62;;
68700;SDS011;55682;51.114;5.882;2023-06-10T13:15:34;7.38;;;7.38;;
68700;SDS011;55682;51.114;5.882;2023-06-10T13:18:03;7.39;;;7.39;;
68700;SDS011;55682;51.114;5.882;2023-06-10T13:20:30;8.08;;;8.08;;
68700;SDS011;55682;51.114;5.882;2023-06-10T13:22:56;7.61;;;7.61;;
68700;SDS011;55682;51.114;5.882;2023-06-10T13:25:22;7.65;;;7.65;;
68700;SDS011;55682;51.114;5.882;2023-06-10T13:27:48;7.20;;;7.20;;
68700;SDS011;55682;51.114;5.882;2023-06-10T13:30:14;6.88;;;6.88;;
68700;SDS011;55682;51.114;5.882;2023-06-10T13:32:40;6.82;;;6.82;;
68700;SDS011;55682;51.114;5.882;2023-06-10T13:35:05;7.16;;;7.16;;
68700;SDS011;55682;51.114;5.882;2023-06-10T13:37:32;7.26;;;7.26;;
68700;SDS011;55682;51.114;5.882;2023-06-10T13:39:58;6.44;;;6.44;;
68700;SDS011;55682;51.114;5.882;2023-06-10T13:42:25;6.30;;;6.30;;
68700;SDS011;55682;51.114;5.882;2023-06-10T13:44:51;7.43;;;7.43;;
68700;SDS011;55682;51.114;5.882;2023-06-10T13:47:17;6.54;;;6.54;;
68700;SDS011;55682;51.114;5.882;2023-06-10T13:49:42;6.86;;;6.86;;
68700;SDS011;55682;51.114;5.882;2023-06-10T13:52:08;7.12;;;7.12;;
68700;SDS011;55682;51.114;5.882;2023-06-10T13:54:34;7.33;;;7.33;;
68700;SDS011;55682;51.114;5.882;2023-06-10T13:57:02;8.31;;;8.31;;
68700;SDS011;55682;51.114;5.882;2023-06-10T13:59:28;7.94;;;7.94;;
68700;SDS011;55682;51.114;5.882;2023-06-10T14:01:54;8.35;;;8.35;;
68700;SDS011;55682;51.114;5.882;2023-06-10T14:04:19;8.51;;;8.51;;
68700;SDS011;55682;51.114;5.882;2023-06-10T14:06:45;8.39;;;8.39;;
68700;SDS011;55682;51.114;5.882;2023-06-10T14:09:12;7.85;;;7.85;;
68700;SDS011;55682;51.114;5.882;2023-06-10T14:11:39;7.76;;;7.76;;
68700;SDS011;55682;51.114;5.882;2023-06-10T14:14:04;8.17;;;8.17;;
68700;SDS011;55682;51.114;5.882;2023-06-10T14:16:30;7.72;;;7.72;;
68700;SDS011;55682;51.114;5.882;2023-06-10T14:18:56;7.37;;;7.37;;
68700;SDS011;55682;51.114;5.882;2023-06-10T14:21:21;7.03;;;7.03;;
68700;SDS011;55682;51.114;5.882;2023-06-10T14:23:47;5.96;;;5.96;;
68700;SDS011;55682;51.114;5.882;2023-06-10T14:26:14;5.63;;;5.63;;
68700;SDS011;55682;51.114;5.882;2023-06-10T14:28:40;5.61;;;5.61;;
68700;SDS011;55682;51.114;5.882;2023-06-10T14:31:05;5.93;;;5.93;;
68700;SDS011;55682;51.114;5.882;2023-06-10T14:33:32;5.88;;;5.88;;
68700;SDS011;55682;51.114;5.882;2023-06-10T14:35:58;6.60;;;6.60;;
68700;SDS011;55682;51.114;5.882;2023-06-10T14:38:23;7.53;;;7.53;;
68700;SDS011;55682;51.114;5.882;2023-06-10T14:40:49;6.79;;;6.79;;
68700;SDS011;55682;51.114;5.882;2023-06-10T14:43:15;5.31;;;5.31;;
68700;SDS011;55682;51.114;5.882;2023-06-10T14:45:40;5.95;;;5.95;;
68700;SDS011;55682;51.114;5.882;2023-06-10T14:48:06;7.49;;;7.49;;
68700;SDS011;55682;51.114;5.882;2023-06-10T14:50:34;8.41;;;8.41;;
68700;SDS011;55682;51.114;5.882;2023-06-10T14:53:00;9.10;;;9.10;;
68700;SDS011;55682;51.114;5.882;2023-06-10T14:55:27;8.63;;;8.63;;
68700;SDS011;55682;51.114;5.882;2023-06-10T14:57:52;6.31;;;6.31;;
68700;SDS011;55682;51.114;5.882;2023-06-10T15:00:18;7.58;;;7.58;;
68700;SDS011;55682;51.114;5.882;2023-06-10T15:02:47;7.59;;;7.59;;
68700;SDS011;55682;51.114;5.882;2023-06-10T15:05:16;7.85;;;7.85;;
68700;SDS011;55682;51.114;5.882;2023-06-10T15:07:44;6.45;;;6.45;;
68700;SDS011;55682;51.114;5.882;2023-06-10T15:10:11;7.30;;;7.30;;
68700;SDS011;55682;51.114;5.882;2023-06-10T15:12:37;6.64;;;6.64;;
68700;SDS011;55682;51.114;5.882;2023-06-10T15:15:02;6.69;;;6.69;;